Time;durP1;ratioP1;P1;durP2;ratioP2;P2;SDS_P1;SDS_P2;PMS_P1;PMS_P2;Temp;Humidity;BMP_temperature;BMP_pressure;BME280_temperature;BME280_humidity;BME280_pressure;Samples;Min_cycle;Max_cycle;Signal;HPM_P1;HPM_P2
2022/04/30 00:00:43;;;;;;;8.77;5.32;;;8.10;99.90;;;;;;5054863;28;20049;-75
2022/04/30 00:03:09;;;;;;;14.50;6.00;;;8.10;99.90;;;;;;5053159;28;20101;-74
2022/04/30 00:05:35;;;;;;;18.15;5.65;;;8.10;99.90;;;;;;5058036;28;20021;-74
2022/04/30 00:08:03;;;;;;;16.90;5.78;;;8.00;99.90;;;;;;5054013;28;20070;-75
2022/04/30 00:10:29;;;;;;;14.82;6.03;;;8.00;99.90;;;;;;5038256;28;20494;-75
2022/04/30 00:12:55;;;;;;;18.05;6.47;;;8.00;99.90;;;;;;5056046;28;20478;-76
2022/04/30 00:15:21;;;;;;;16.25;6.10;;;8.00;99.90;;;;;;5053787;28;20104;-74
2022/04/30 00:17:47;;;;;;;13.15;7.57;;;8.00;99.90;;;;;;5037907;28;20039;-74
2022/04/30 00:20:12;;;;;;;19.63;7.80;;;8.00;99.90;;;;;;5055134;28;20033;-75
2022/04/30 00:22:38;;;;;;;21.25;7.60;;;8.00;99.90;;;;;;5055995;28;20086;-74
2022/04/30 00:25:04;;;;;;;17.33;7.43;;;8.00;99.90;;;;;;5068295;28;20028;-74
2022/04/30 00:27:31;;;;;;;16.75;8.02;;;7.90;99.90;;;;;;5055507;28;20164;-75
2022/04/30 00:30:01;;;;;;;23.38;8.55;;;7.90;99.90;;;;;;5054836;28;20048;-75
2022/04/30 00:32:26;;;;;;;17.40;7.50;;;7.90;99.90;;;;;;5037243;28;20462;-74
2022/04/30 00:34:53;;;;;;;15.00;7.32;;;7.80;99.90;;;;;;5035851;28;20028;-74
2022/04/30 00:37:19;;;;;;;13.45;8.20;;;7.80;99.90;;;;;;5049484;28;20487;-74
2022/04/30 00:39:44;;;;;;;15.45;8.05;;;7.80;99.90;;;;;;5034196;28;20032;-75
2022/04/30 00:42:11;;;;;;;18.85;10.02;;;7.80;99.90;;;;;;5055298;28;20025;-75
2022/04/30 00:44:38;;;;;;;16.33;9.80;;;7.80;99.90;;;;;;5056695;28;20028;-74
2022/04/30 00:47:04;;;;;;;19.92;9.38;;;7.70;99.90;;;;;;5039475;28;20025;-75
2022/04/30 00:49:30;;;;;;;22.75;10.13;;;7.60;99.90;;;;;;5056717;28;20540;-75
2022/04/30 00:52:00;;;;;;;17.35;8.60;;;7.60;99.90;;;;;;5038759;28;20021;-76
2022/04/30 00:54:31;;;;;;;25.30;9.48;;;7.50;99.90;;;;;;5039315;28;20036;-76
2022/04/30 00:57:01;;;;;;;25.48;9.13;;;7.50;99.90;;;;;;5058268;28;20021;-76
2022/04/30 00:59:27;;;;;;;13.43;7.22;;;7.40;99.90;;;;;;5066392;28;20000;-75
2022/04/30 01:01:53;;;;;;;15.48;8.25;;;7.40;99.90;;;;;;5056958;28;20028;-76
2022/04/30 01:04:19;;;;;;;12.32;8.10;;;7.40;99.90;;;;;;5059646;28;20021;-76
2022/04/30 01:07:00;;;;;;;22.25;8.52;;;7.30;99.90;;;;;;5059821;28;20474;-76
2022/04/30 01:09:31;;;;;;;13.48;7.68;;;7.20;99.90;;;;;;5041400;28;20047;-75
2022/04/30 01:12:06;;;;;;;18.98;8.48;;;7.20;99.90;;;;;;5060153;28;20025;-76
2022/04/30 01:14:34;;;;;;;20.67;9.43;;;7.10;99.90;;;;;;5059684;28;20490;-76
2022/04/30 01:17:05;;;;;;;29.33;10.50;;;7.10;99.90;;;;;;5055430;28;20021;-76
2022/04/30 01:19:33;;;;;;;14.82;8.95;;;7.10;99.90;;;;;;5059133;28;20020;-75
2022/04/30 01:22:01;;;;;;;19.48;9.18;;;7.10;99.90;;;;;;5038741;28;20033;-75
2022/04/30 01:24:28;;;;;;;18.77;9.13;;;7.00;99.90;;;;;;5041870;28;20025;-75
2022/04/30 01:26:55;;;;;;;19.88;9.45;;;7.00;99.90;;;;;;5058265;28;20056;-75
2022/04/30 01:29:23;;;;;;;21.27;9.40;;;7.00;99.90;;;;;;5057908;28;20029;-74
2022/04/30 01:37:27;;;;;;;16.25;9.40;;;7.00;99.90;;;;;;5061432;28;20448;-76
2022/04/30 01:40:03;;;;;;;22.30;10.50;;;6.80;99.90;;;;;;5043375;28;20045;-76
2022/04/30 01:42:31;;;;;;;20.48;9.95;;;6.90;99.90;;;;;;5066680;22;20048;-73
2022/04/30 01:44:58;;;;;;;21.80;10.43;;;6.90;99.90;;;;;;5054646;28;20045;-75
2022/04/30 01:47:25;;;;;;;18.92;9.98;;;6.90;99.90;;;;;;5037487;28;20043;-74
2022/04/30 01:49:51;;;;;;;21.23;10.40;;;6.90;99.90;;;;;;5037354;28;20032;-76
2022/04/30 01:52:18;;;;;;;24.00;9.80;;;6.90;99.90;;;;;;5051673;28;20045;-75
2022/04/30 01:54:44;;;;;;;20.67;9.65;;;6.90;99.90;;;;;;5054820;28;20024;-75
2022/04/30 01:57:10;;;;;;;18.60;9.35;;;6.90;99.90;;;;;;5047995;28;20012;-75
2022/04/30 01:59:36;;;;;;;21.13;9.88;;;7.00;99.90;;;;;;5040064;28;20546;-75
2022/04/30 02:02:03;;;;;;;17.42;9.45;;;6.90;99.90;;;;;;4999790;28;20033;-75
2022/04/30 02:04:31;;;;;;;23.15;11.27;;;6.90;99.90;;;;;;5017903;28;20076;-75
2022/04/30 02:07:01;;;;;;;24.40;11.38;;;6.90;99.90;;;;;;5017465;28;20029;-75
2022/04/30 02:09:28;;;;;;;21.08;9.40;;;6.90;99.90;;;;;;5017714;28;20018;-75
2022/04/30 02:12:01;;;;;;;27.40;9.27;;;6.90;99.90;;;;;;5017201;28;20056;-75
2022/04/30 02:14:30;;;;;;;16.67;9.60;;;6.90;99.90;;;;;;5016793;28;20022;-74
2022/04/30 02:16:59;;;;;;;18.85;11.07;;;6.90;99.90;;;;;;5016753;28;20057;-74
2022/04/30 02:19:28;;;;;;;19.58;10.35;;;6.90;99.90;;;;;;5016501;28;20037;-75
2022/04/30 02:21:57;;;;;;;18.67;9.63;;;6.90;99.90;;;;;;5016689;28;20029;-75
2022/04/30 02:24:26;;;;;;;17.50;10.45;;;6.90;99.90;;;;;;5016465;28;20076;-74
2022/04/30 02:26:51;;;;;;;20.15;9.90;;;6.90;99.90;;;;;;5016184;28;20037;-74
2022/04/30 02:29:17;;;;;;;19.70;9.57;;;6.90;99.90;;;;;;5016707;28;20030;-75
2022/04/30 02:31:43;;;;;;;19.17;9.25;;;6.90;99.90;;;;;;5016120;28;20091;-74
2022/04/30 02:34:08;;;;;;;19.83;9.52;;;6.90;99.90;;;;;;5016366;28;20022;-75
2022/04/30 02:36:34;;;;;;;21.83;10.45;;;6.80;99.90;;;;;;5016236;28;20484;-75
2022/04/30 02:39:00;;;;;;;24.40;9.15;;;6.70;99.90;;;;;;5016166;28;20026;-75
2022/04/30 02:41:28;;;;;;;21.13;10.15;;;6.80;99.90;;;;;;5016531;28;20041;-74
2022/04/30 02:43:54;;;;;;;17.77;9.60;;;6.80;99.90;;;;;;5016567;28;20033;-74
2022/04/30 02:46:21;;;;;;;19.30;8.85;;;6.70;99.90;;;;;;5016522;28;20018;-74
2022/04/30 02:48:47;;;;;;;19.63;9.20;;;6.80;99.90;;;;;;5016788;28;20436;-74
2022/04/30 02:51:15;;;;;;;20.25;10.77;;;6.70;99.90;;;;;;5016392;28;20368;-73
2022/04/30 02:53:41;;;;;;;25.60;9.88;;;6.70;99.90;;;;;;5016451;28;20026;-74
2022/04/30 02:56:07;;;;;;;25.90;10.27;;;6.60;99.90;;;;;;5017220;28;20017;-74
2022/04/30 03:01:19;;;;;;;16.77;9.55;;;6.60;99.90;;;;;;5036504;28;20136;-74
2022/04/30 03:03:46;;;;;;;17.88;10.10;;;6.60;99.90;;;;;;5012089;28;20026;-74
2022/04/30 03:06:13;;;;;;;22.52;10.35;;;6.60;99.90;;;;;;5011586;28;20426;-75
2022/04/30 03:08:39;;;;;;;18.70;9.90;;;6.70;99.90;;;;;;5026902;28;20072;-75
2022/04/30 03:11:07;;;;;;;20.67;10.05;;;6.70;99.90;;;;;;5016873;28;20045;-74
2022/04/30 03:13:34;;;;;;;20.75;9.63;;;6.60;99.90;;;;;;5017075;28;20039;-74
2022/04/30 03:21:41;;;;;;;23.20;10.93;;;6.70;99.90;;;;;;5000468;28;20029;-74
2022/04/30 03:21:44;;;;;;;19.20;10.75;;;6.70;99.90;;;;;;5022711;28;20100;-74
2022/04/30 03:24:11;;;;;;;21.92;11.13;;;6.70;99.90;;;;;;4998240;28;20029;-75
2022/04/30 03:26:37;;;;;;;23.58;11.60;;;6.70;99.90;;;;;;5015955;28;20026;-75
2022/04/30 03:29:03;;;;;;;24.98;10.98;;;6.80;99.90;;;;;;5015536;28;20105;-74
2022/04/30 03:31:30;;;;;;;24.75;11.02;;;6.80;99.90;;;;;;5026952;28;20049;-75
2022/04/30 03:33:56;;;;;;;29.50;11.48;;;6.80;99.90;;;;;;5016371;28;20482;-75
2022/04/30 03:36:21;;;;;;;19.52;11.00;;;6.80;99.90;;;;;;5016853;28;20125;-74
2022/04/30 03:38:47;;;;;;;20.00;10.45;;;6.80;99.90;;;;;;5024910;28;20025;-74
2022/04/30 03:41:15;;;;;;;19.00;10.68;;;6.80;99.90;;;;;;5036030;28;20065;-74
2022/04/30 03:43:41;;;;;;;24.00;11.10;;;6.80;99.90;;;;;;5039072;28;20063;-74
2022/04/30 03:46:06;;;;;;;27.13;11.75;;;6.80;99.90;;;;;;5041519;28;20022;-75
2022/04/30 03:48:33;;;;;;;22.98;11.55;;;6.80;99.90;;;;;;5043628;28;20018;-76
2022/04/30 03:50:59;;;;;;;25.45;11.30;;;6.80;99.90;;;;;;5025104;28;20044;-75
2022/04/30 03:53:24;;;;;;;24.38;11.40;;;6.80;99.90;;;;;;5024594;28;20538;-75
2022/04/30 03:55:51;;;;;;;23.70;11.65;;;6.70;99.90;;;;;;5025101;28;20175;-75
2022/04/30 03:58:16;;;;;;;27.52;12.30;;;6.70;99.90;;;;;;5023409;28;20029;-74
2022/04/30 04:00:43;;;;;;;25.60;12.02;;;6.70;99.90;;;;;;5011333;28;20155;-74
2022/04/30 04:03:09;;;;;;;26.10;10.90;;;6.70;99.90;;;;;;5034982;28;20017;-75
2022/04/30 04:05:35;;;;;;;24.75;10.75;;;6.70;99.90;;;;;;5034761;28;20048;-75
2022/04/30 04:08:00;;;;;;;23.27;10.93;;;6.70;99.90;;;;;;5034822;28;20075;-74
2022/04/30 04:10:26;;;;;;;21.02;11.20;;;6.80;99.90;;;;;;5034779;28;20026;-74
2022/04/30 04:17:37;;;;;;;21.60;11.20;;;6.70;99.90;;;;;;5017183;28;20049;-74
2022/04/30 04:18:22;;;;;;;22.63;10.73;;;6.70;99.90;;;;;;5021802;28;20028;-74
2022/04/30 04:20:47;;;;;;;28.35;12.23;;;6.70;99.90;;;;;;5037337;28;20025;-74
2022/04/30 04:23:13;;;;;;;22.55;11.30;;;6.70;99.90;;;;;;5036329;28;20033;-74
2022/04/30 04:28:23;;;;;;;22.13;11.40;;;6.70;99.90;;;;;;5044998;28;20078;-74
2022/04/30 04:30:48;;;;;;;25.00;11.32;;;6.70;99.90;;;;;;5042160;28;20112;-74
2022/04/30 04:33:14;;;;;;;25.52;11.55;;;6.70;99.90;;;;;;5043964;28;20029;-74
2022/04/30 04:35:39;;;;;;;24.95;11.38;;;6.70;99.90;;;;;;5032142;28;20037;-74
2022/04/30 04:38:05;;;;;;;26.58;11.75;;;6.60;99.90;;;;;;5031002;28;20026;-74
2022/04/30 04:40:30;;;;;;;21.23;10.85;;;6.60;99.90;;;;;;5015951;28;20091;-75
2022/04/30 04:42:56;;;;;;;21.63;11.10;;;6.70;99.90;;;;;;5033746;28;20072;-75
2022/04/30 04:45:23;;;;;;;30.40;12.00;;;6.70;99.90;;;;;;5034656;28;20061;-75
2022/04/30 04:47:49;;;;;;;23.33;10.98;;;6.50;99.90;;;;;;5033749;28;20389;-75
2022/04/30 04:50:15;;;;;;;26.02;12.07;;;6.50;99.90;;;;;;5034120;28;20056;-75
2022/04/30 04:52:42;;;;;;;23.55;12.70;;;6.50;99.90;;;;;;5033666;28;20029;-75
2022/04/30 04:55:08;;;;;;;22.92;12.45;;;6.50;99.90;;;;;;5033950;28;20158;-75
2022/04/30 04:57:34;;;;;;;24.45;12.77;;;6.60;99.90;;;;;;5035010;28;20021;-75
2022/04/30 05:00:00;;;;;;;29.30;12.40;;;6.50;99.90;;;;;;5036566;28;20028;-75
2022/04/30 05:02:26;;;;;;;26.20;12.05;;;6.50;99.90;;;;;;5023859;28;20033;-76
2022/04/30 05:04:51;;;;;;;25.45;12.63;;;6.50;99.90;;;;;;5041786;28;20021;-75
2022/04/30 05:07:17;;;;;;;20.55;11.80;;;6.50;99.90;;;;;;5043782;28;20027;-76
2022/04/30 05:09:43;;;;;;;28.75;12.55;;;6.50;99.90;;;;;;5042133;28;20021;-76
2022/04/30 05:12:09;;;;;;;24.30;12.75;;;6.60;99.90;;;;;;5025767;28;20090;-76
2022/04/30 05:14:34;;;;;;;29.00;13.55;;;6.60;99.90;;;;;;5043321;28;20021;-75
2022/04/30 05:17:01;;;;;;;29.27;12.43;;;6.70;99.90;;;;;;5041857;28;20030;-75
2022/04/30 05:19:27;;;;;;;31.40;13.60;;;6.70;99.90;;;;;;5041984;28;20018;-75
2022/04/30 05:21:52;;;;;;;30.80;11.95;;;6.70;99.90;;;;;;5047590;28;20538;-76
2022/04/30 05:24:18;;;;;;;28.20;13.95;;;6.70;99.90;;;;;;5034183;28;20443;-75
2022/04/30 05:26:44;;;;;;;22.98;12.05;;;6.80;99.90;;;;;;5041107;28;20139;-75
2022/04/30 05:29:10;;;;;;;25.30;11.85;;;6.90;99.90;;;;;;5041427;28;20428;-74
2022/04/30 05:31:36;;;;;;;28.33;11.98;;;7.00;99.90;;;;;;5043004;28;20029;-75
2022/04/30 05:34:02;;;;;;;24.45;11.77;;;7.00;99.90;;;;;;5041527;28;20022;-74
2022/04/30 05:36:27;;;;;;;23.45;11.50;;;7.10;99.90;;;;;;5041634;28;20394;-73
2022/04/30 05:38:53;;;;;;;28.58;11.40;;;7.10;99.90;;;;;;5042943;28;20266;-74
2022/04/30 05:41:18;;;;;;;24.85;11.48;;;7.20;99.90;;;;;;5038055;28;20045;-73
2022/04/30 05:43:44;;;;;;;26.20;13.98;;;7.40;99.90;;;;;;5041699;28;20033;-73
2022/04/30 05:46:12;;;;;;;21.65;11.18;;;7.40;99.90;;;;;;5042174;28;20032;-74
2022/04/30 05:48:37;;;;;;;25.92;12.27;;;7.50;99.90;;;;;;5041849;28;20018;-74
2022/04/30 05:51:03;;;;;;;22.73;11.02;;;7.50;99.90;;;;;;5028338;28;20021;-74
2022/04/30 05:53:29;;;;;;;25.92;11.30;;;7.60;99.90;;;;;;5028112;28;20108;-74
2022/04/30 05:55:54;;;;;;;28.63;12.32;;;7.70;99.90;;;;;;5044844;28;20147;-74
2022/04/30 05:58:20;;;;;;;25.48;11.82;;;7.80;99.90;;;;;;5046461;28;20017;-73
2022/04/30 06:00:46;;;;;;;26.23;11.48;;;7.90;99.90;;;;;;5046043;28;20034;-74
2022/04/30 06:03:12;;;;;;;28.60;11.35;;;7.90;99.90;;;;;;5045457;28;20040;-74
2022/04/30 06:05:38;;;;;;;23.70;11.77;;;8.00;99.90;;;;;;5047244;28;20029;-73
2022/04/30 06:08:07;;;;;;;23.35;10.38;;;8.10;99.90;;;;;;5046378;28;20063;-75
2022/04/30 06:10:32;;;;;;;21.35;11.15;;;8.20;99.90;;;;;;5029048;28;20112;-75
2022/04/30 06:12:59;;;;;;;21.20;10.65;;;8.40;99.90;;;;;;5048516;28;20053;-75
2022/04/30 06:15:25;;;;;;;24.73;11.52;;;8.40;99.90;;;;;;5033145;28;20018;-74
2022/04/30 06:17:50;;;;;;;30.10;10.27;;;8.50;99.90;;;;;;5060000;28;20012;-74
2022/04/30 06:20:16;;;;;;;18.27;9.88;;;8.60;99.90;;;;;;5044355;28;20041;-74
2022/04/30 06:22:42;;;;;;;21.42;10.15;;;8.80;99.90;;;;;;5061272;28;20430;-74
2022/04/30 06:25:08;;;;;;;17.90;9.30;;;8.90;99.90;;;;;;5054462;28;20037;-74
2022/04/30 06:27:34;;;;;;;16.75;9.25;;;9.00;99.90;;;;;;5039559;28;20033;-75
2022/04/30 06:30:00;;;;;;;15.98;9.23;;;9.00;99.90;;;;;;5039655;28;20025;-74
2022/04/30 06:32:26;;;;;;;19.38;9.65;;;9.30;99.90;;;;;;5036641;28;20040;-75
2022/04/30 06:34:52;;;;;;;18.10;8.63;;;9.40;99.90;;;;;;5036567;28;20026;-75
2022/04/30 06:37:18;;;;;;;22.10;8.95;;;9.50;99.90;;;;;;5037003;28;20043;-74
2022/04/30 06:39:44;;;;;;;20.23;9.07;;;9.60;99.90;;;;;;5036357;28;20494;-74
2022/04/30 06:42:10;;;;;;;20.80;9.02;;;9.70;99.90;;;;;;5035980;28;20041;-74
2022/04/30 06:44:35;;;;;;;18.75;8.18;;;9.80;99.90;;;;;;5018479;28;20479;-74
2022/04/30 06:47:01;;;;;;;19.27;8.40;;;9.90;99.90;;;;;;5036010;28;20113;-74
2022/04/30 06:49:27;;;;;;;16.25;7.18;;;10.00;99.90;;;;;;5035973;28;20037;-74
2022/04/30 06:51:52;;;;;;;17.00;7.63;;;10.20;99.90;;;;;;5035541;28;20087;-73
2022/04/30 06:57:11;;;;;;;13.63;6.78;;;10.40;99.90;;;;;;5035644;28;20082;-74
2022/04/30 06:59:41;;;;;;;18.27;7.20;;;10.50;99.90;;;;;;5035533;28;20062;-73
2022/04/30 07:02:12;;;;;;;12.90;7.43;;;10.70;99.90;;;;;;5034739;28;20026;-74
2022/04/30 07:04:42;;;;;;;11.27;6.80;;;10.90;99.90;;;;;;5036473;28;20052;-74
2022/04/30 07:07:08;;;;;;;16.98;6.70;;;10.90;99.90;;;;;;5035334;28;20018;-74
2022/04/30 07:09:35;;;;;;;10.43;6.50;;;10.90;99.90;;;;;;5035302;28;20100;-74
2022/04/30 07:12:06;;;;;;;12.07;5.97;;;10.80;99.90;;;;;;5034857;28;20368;-75
2022/04/30 07:14:40;;;;;;;15.77;5.97;;;10.80;99.90;;;;;;5017877;28;20057;-74
2022/04/30 07:17:07;;;;;;;14.55;5.30;;;10.70;99.90;;;;;;5035233;28;20032;-74
2022/04/30 07:19:33;;;;;;;10.82;4.97;;;10.90;99.90;;;;;;5035465;28;20056;-75
2022/04/30 07:21:59;;;;;;;12.93;5.30;;;11.10;99.90;;;;;;5035637;28;20041;-74
2022/04/30 07:24:24;;;;;;;10.48;5.07;;;11.30;99.90;;;;;;5018302;28;20033;-74
2022/04/30 07:26:51;;;;;;;18.02;5.22;;;11.50;99.90;;;;;;5036208;28;20021;-74
2022/04/30 07:29:16;;;;;;;10.98;4.90;;;11.70;99.90;;;;;;5037004;28;20053;-74
2022/04/30 07:31:42;;;;;;;10.30;5.85;;;11.80;99.90;;;;;;5037005;28;20390;-74
2022/04/30 07:34:09;;;;;;;12.30;5.20;;;11.80;99.90;;;;;;5018656;28;20437;-74
2022/04/30 07:36:36;;;;;;;12.43;4.93;;;11.90;99.90;;;;;;5038806;28;20026;-74
2022/04/30 07:39:03;;;;;;;9.05;4.70;;;11.90;99.90;;;;;;5038455;28;20017;-74
2022/04/30 07:41:29;;;;;;;12.55;4.63;;;11.90;99.90;;;;;;5036693;28;20532;-74
2022/04/30 07:43:55;;;;;;;12.65;4.78;;;11.90;99.90;;;;;;5060847;22;20050;-76
2022/04/30 07:46:22;;;;;;;14.45;5.90;;;11.80;99.90;;;;;;5001416;28;20049;-75
2022/04/30 07:48:48;;;;;;;15.68;5.80;;;11.80;99.90;;;;;;5018431;28;20028;-76
2022/04/30 07:51:16;;;;;;;12.27;5.53;;;11.70;99.90;;;;;;5018363;28;20022;-75
2022/04/30 07:53:42;;;;;;;16.63;5.13;;;11.70;99.90;;;;;;5013006;28;20030;-75
2022/04/30 07:56:08;;;;;;;13.18;5.20;;;11.80;99.90;;;;;;4998172;28;20077;-75
2022/04/30 07:58:34;;;;;;;13.00;5.57;;;11.90;99.90;;;;;;4998688;28;20026;-75
2022/04/30 08:00:59;;;;;;;7.28;4.60;;;12.10;99.90;;;;;;4997885;28;20022;-75
2022/04/30 08:03:25;;;;;;;14.52;4.60;;;12.30;99.90;;;;;;4995980;28;20058;-74
2022/04/30 08:05:51;;;;;;;10.32;3.88;;;12.50;99.90;;;;;;5003540;28;20045;-75
2022/04/30 08:08:16;;;;;;;5.70;3.75;;;12.60;99.90;;;;;;4997792;28;20030;-74
2022/04/30 08:10:42;;;;;;;8.05;4.70;;;12.60;99.90;;;;;;4996853;28;20026;-75
2022/04/30 08:13:08;;;;;;;9.38;4.47;;;12.40;99.90;;;;;;4994198;28;20113;-75
2022/04/30 08:15:34;;;;;;;11.20;3.92;;;12.20;99.90;;;;;;4995130;28;20057;-75
2022/04/30 08:18:00;;;;;;;7.63;3.70;;;12.10;99.90;;;;;;4997086;28;20427;-75
2022/04/30 08:20:25;;;;;;;9.07;3.85;;;11.90;99.90;;;;;;4996939;28;20054;-75
2022/04/30 08:22:51;;;;;;;5.80;3.60;;;11.80;99.90;;;;;;4984124;28;20083;-75
2022/04/30 08:25:17;;;;;;;9.98;4.20;;;11.60;99.90;;;;;;4994768;28;20022;-75
2022/04/30 08:27:43;;;;;;;8.25;4.03;;;11.60;99.90;;;;;;4997660;28;20027;-75
2022/04/30 08:30:10;;;;;;;10.40;3.92;;;11.70;99.90;;;;;;5005478;28;20052;-75
2022/04/30 08:32:36;;;;;;;7.50;3.90;;;11.80;99.90;;;;;;4997985;28;20052;-75
2022/04/30 08:35:02;;;;;;;7.57;3.30;;;12.00;99.90;;;;;;4980791;28;20022;-75
2022/04/30 08:37:29;;;;;;;9.55;3.38;;;12.20;99.90;;;;;;4998073;28;20026;-75
2022/04/30 08:39:55;;;;;;;8.20;3.42;;;12.30;99.90;;;;;;4982594;28;20034;-75
2022/04/30 08:42:23;;;;;;;8.35;3.88;;;12.50;99.90;;;;;;5014349;28;20066;-75
2022/04/30 08:44:49;;;;;;;10.40;3.28;;;12.60;99.90;;;;;;5011123;28;20026;-75
2022/04/30 08:47:15;;;;;;;4.70;2.97;;;12.60;99.90;;;;;;5009249;28;20099;-75
2022/04/30 08:49:45;;;;;;;8.23;3.15;;;12.60;99.90;;;;;;5006454;28;20030;-75
2022/04/30 08:52:12;;;;;;;6.90;3.33;;;12.70;99.90;;;;;;4988526;28;20057;-74
2022/04/30 08:54:38;;;;;;;12.40;3.90;;;12.60;99.90;;;;;;5008282;28;20018;-75
2022/04/30 08:57:04;;;;;;;12.20;3.72;;;12.50;99.90;;;;;;5005492;28;20018;-75
2022/04/30 08:59:30;;;;;;;5.80;3.80;;;12.50;99.90;;;;;;5010854;28;20029;-74
2022/04/30 09:01:58;;;;;;;8.48;3.78;;;12.50;99.90;;;;;;5007283;28;20076;-75
2022/04/30 09:04:25;;;;;;;8.73;3.78;;;12.50;99.90;;;;;;4993107;28;20377;-74
2022/04/30 09:06:53;;;;;;;6.10;3.80;;;12.50;99.90;;;;;;5011739;28;20027;-74
2022/04/30 09:09:30;;;;;;;6.57;3.50;;;12.70;99.90;;;;;;5001010;28;20029;-74
2022/04/30 09:12:13;;;;;;;7.30;3.40;;;12.90;99.90;;;;;;4989940;28;20495;-73
2022/04/30 09:14:41;;;;;;;4.07;2.15;;;13.10;99.90;;;;;;4995386;28;20124;-76
2022/04/30 09:17:12;;;;;;;5.22;2.47;;;13.20;99.90;;;;;;4995540;28;20026;-75
2022/04/30 09:19:48;;;;;;;7.35;2.92;;;13.30;99.90;;;;;;4983199;28;20041;-74
2022/04/30 09:22:15;;;;;;;5.43;3.13;;;13.30;99.90;;;;;;5021715;28;20112;-75
2022/04/30 09:24:48;;;;;;;7.30;3.30;;;13.40;99.90;;;;;;5007656;28;20438;-75
2022/04/30 09:27:17;;;;;;;4.10;2.78;;;13.60;99.90;;;;;;5009544;28;20029;-75
2022/04/30 09:29:43;;;;;;;7.22;3.70;;;13.70;99.90;;;;;;5008531;28;20034;-74
2022/04/30 09:32:20;;;;;;;6.55;2.60;;;13.90;99.90;;;;;;5005970;28;20026;-74
2022/04/30 09:37:41;;;;;;;4.43;2.70;;;13.90;99.90;;;;;;5007899;28;20033;-74
2022/04/30 09:40:13;;;;;;;3.67;3.05;;;13.70;99.90;;;;;;5007979;28;20026;-75
2022/04/30 09:42:42;;;;;;;5.65;2.63;;;13.70;99.90;;;;;;5000179;28;20435;-74
2022/04/30 09:45:20;;;;;;;5.45;2.88;;;13.70;99.90;;;;;;4993944;28;20024;-75
2022/04/30 09:47:47;;;;;;;4.43;2.38;;;13.70;99.90;;;;;;4998153;28;20434;-75
2022/04/30 09:53:56;;;;;;;5.18;1.85;;;13.60;99.90;;;;;;5009535;28;20150;-75
2022/04/30 09:55:54;;;;;;;6.45;2.53;;;13.60;99.90;;;;;;5015782;28;20061;-75
2022/04/30 09:58:24;;;;;;;6.90;2.85;;;13.60;99.90;;;;;;4998218;28;20022;-75
2022/04/30 10:00:54;;;;;;;6.68;2.72;;;13.60;99.90;;;;;;5006680;28;20022;-75
2022/04/30 10:03:29;;;;;;;7.50;4.30;;;13.70;99.90;;;;;;5005627;28;20026;-75
2022/04/30 10:06:04;;;;;;;6.95;3.75;;;13.70;99.90;;;;;;5004192;28;20076;-75
2022/04/30 10:08:35;;;;;;;6.40;3.83;;;13.80;99.90;;;;;;4990677;28;20058;-75
2022/04/30 10:11:22;;;;;;;7.00;4.00;;;13.80;99.90;;;;;;5008641;28;20073;-75
2022/04/30 10:14:09;;;;;;;8.43;3.50;;;13.90;99.90;;;;;;5008005;28;20023;-75
2022/04/30 10:16:35;;;;;;;8.45;4.05;;;13.70;99.90;;;;;;5007774;28;20018;-74
2022/04/30 10:19:15;;;;;;;8.85;3.92;;;13.60;99.90;;;;;;5009771;28;20104;-74
2022/04/30 10:21:41;;;;;;;11.50;4.25;;;13.50;99.90;;;;;;4982740;28;20022;-74
2022/04/30 10:24:09;;;;;;;8.57;4.18;;;13.50;99.90;;;;;;4982710;28;20023;-74
2022/04/30 10:26:36;;;;;;;8.75;3.35;;;13.50;99.90;;;;;;5007442;28;20045;-75
2022/04/30 10:29:11;;;;;;;5.70;3.50;;;13.50;99.90;;;;;;5008353;28;20034;-75
2022/04/30 10:31:44;;;;;;;8.50;3.83;;;13.30;99.90;;;;;;4998232;28;20018;-75
2022/04/30 10:34:11;;;;;;;6.40;3.55;;;13.20;99.90;;;;;;4998413;28;20380;-74
2022/04/30 10:36:39;;;;;;;5.70;3.47;;;13.20;99.90;;;;;;4999358;28;20480;-75
2022/04/30 10:39:09;;;;;;;7.22;3.40;;;13.20;99.90;;;;;;5006939;28;20021;-75
2022/04/30 10:41:45;;;;;;;7.75;3.67;;;13.30;99.90;;;;;;5008927;28;20033;-75
2022/04/30 10:44:13;;;;;;;8.27;4.22;;;13.40;99.90;;;;;;5000313;28;20026;-75
2022/04/30 10:46:42;;;;;;;4.93;3.65;;;13.30;99.90;;;;;;5002806;28;20106;-75
2022/04/30 10:49:08;;;;;;;7.55;4.00;;;13.30;99.90;;;;;;5007548;28;20026;-75
2022/04/30 10:51:43;;;;;;;6.00;3.17;;;13.20;99.90;;;;;;4995965;28;20076;-74
2022/04/30 10:54:10;;;;;;;5.40;3.72;;;13.30;99.90;;;;;;5002106;28;20037;-74
2022/04/30 10:56:38;;;;;;;8.32;3.75;;;13.40;99.90;;;;;;4986507;28;20380;-74
2022/04/30 10:59:04;;;;;;;6.63;3.60;;;13.40;99.90;;;;;;4998915;28;20018;-74
2022/04/30 11:01:30;;;;;;;6.85;3.90;;;13.40;99.90;;;;;;4998506;28;20030;-74
2022/04/30 11:03:55;;;;;;;9.15;4.18;;;13.40;99.90;;;;;;4996851;28;20034;-75
2022/04/30 11:06:26;;;;;;;7.75;4.05;;;13.50;99.90;;;;;;5000436;28;20035;-75
2022/04/30 11:09:06;;;;;;;7.20;3.70;;;13.40;99.90;;;;;;5004164;28;20113;-75
2022/04/30 11:11:36;;;;;;;10.07;4.28;;;13.30;99.90;;;;;;5005154;28;20054;-74
2022/04/30 11:14:08;;;;;;;5.57;3.95;;;13.30;99.90;;;;;;4997006;28;20032;-74
2022/04/30 11:16:44;;;;;;;11.40;4.20;;;13.40;99.90;;;;;;5000213;28;20025;-74
2022/04/30 11:19:13;;;;;;;11.05;4.35;;;13.50;99.90;;;;;;4995889;28;20037;-74
2022/04/30 11:21:39;;;;;;;5.68;3.40;;;13.60;99.90;;;;;;4997662;28;20526;-74
2022/04/30 11:24:06;;;;;;;6.70;3.58;;;13.70;99.90;;;;;;4998275;28;20030;-76
2022/04/30 11:26:43;;;;;;;7.40;3.67;;;13.60;99.90;;;;;;4997749;28;20033;-75
2022/04/30 11:29:13;;;;;;;7.65;3.67;;;13.60;99.90;;;;;;4996973;28;20026;-75
2022/04/30 11:31:40;;;;;;;9.35;3.80;;;13.60;99.90;;;;;;5005122;28;20034;-75
2022/04/30 11:34:15;;;;;;;9.70;4.10;;;13.60;99.90;;;;;;5004349;28;20030;-75
2022/04/30 11:36:43;;;;;;;8.23;4.40;;;13.70;99.90;;;;;;5001863;28;20026;-75
2022/04/30 11:39:14;;;;;;;6.15;3.75;;;13.70;99.90;;;;;;5002051;28;20109;-75
2022/04/30 11:41:41;;;;;;;9.95;4.57;;;13.70;99.90;;;;;;4997849;28;20022;-75
2022/04/30 11:44:11;;;;;;;5.30;3.75;;;13.60;99.90;;;;;;5001306;28;20042;-74
2022/04/30 11:46:41;;;;;;;10.57;4.47;;;13.70;99.90;;;;;;4988156;28;20067;-74
2022/04/30 11:49:08;;;;;;;6.72;3.53;;;13.80;99.90;;;;;;4999074;28;20022;-75
2022/04/30 11:51:35;;;;;;;7.20;3.53;;;13.80;99.90;;;;;;4980654;28;20344;-75
2022/04/30 11:54:07;;;;;;;9.93;4.25;;;13.80;99.90;;;;;;4983641;28;20026;-75
2022/04/30 11:56:34;;;;;;;7.10;4.18;;;13.80;99.90;;;;;;4995680;28;20353;-75
2022/04/30 11:58:59;;;;;;;12.27;3.75;;;13.80;99.90;;;;;;5005293;28;20116;-74
2022/04/30 12:01:28;;;;;;;8.63;3.65;;;13.80;99.90;;;;;;4984737;28;20027;-75
2022/04/30 12:04:04;;;;;;;7.32;3.47;;;13.90;99.90;;;;;;5004680;28;20026;-75
2022/04/30 12:06:31;;;;;;;8.00;3.38;;;13.90;99.90;;;;;;4997716;28;20122;-75
2022/04/30 12:08:57;;;;;;;7.72;3.72;;;13.90;99.90;;;;;;4993760;28;20026;-75
2022/04/30 12:11:24;;;;;;;7.70;3.60;;;13.90;99.90;;;;;;4997324;28;20483;-75
2022/04/30 12:14:07;;;;;;;6.28;3.53;;;14.00;99.90;;;;;;5013638;28;20054;-75
2022/04/30 12:16:36;;;;;;;3.40;2.90;;;14.00;99.90;;;;;;4998028;28;20484;-75
2022/04/30 12:24:40;;;;;;;6.47;2.97;;;14.00;99.90;;;;;;4994422;28;20476;-75
2022/04/30 12:27:08;;;;;;;8.00;3.28;;;14.10;99.90;;;;;;4988570;28;20113;-75
2022/04/30 12:29:33;;;;;;;5.43;3.55;;;14.20;99.90;;;;;;4984347;28;20113;-75
2022/04/30 12:32:03;;;;;;;4.47;3.03;;;14.20;99.90;;;;;;4995498;28;20049;-75
2022/04/30 12:34:38;;;;;;;10.02;3.63;;;14.20;99.90;;;;;;4998190;28;20457;-75
2022/04/30 12:37:05;;;;;;;5.00;2.78;;;14.30;99.90;;;;;;4990393;28;20392;-75
2022/04/30 12:39:30;;;;;;;4.68;3.42;;;14.50;99.90;;;;;;4997317;28;20030;-76
2022/04/30 12:41:59;;;;;;;5.80;3.08;;;14.50;99.90;;;;;;5004390;28;20049;-75
2022/04/30 12:44:26;;;;;;;5.82;3.03;;;14.60;99.90;;;;;;4983406;28;20034;-75
2022/04/30 12:46:52;;;;;;;7.63;3.03;;;14.70;99.90;;;;;;4998127;28;20077;-75
2022/04/30 12:49:19;;;;;;;4.85;3.35;;;14.70;99.90;;;;;;4998750;28;20026;-75
2022/04/30 12:51:46;;;;;;;5.50;3.20;;;14.70;99.90;;;;;;4997740;28;20022;-75
2022/04/30 12:54:13;;;;;;;8.70;3.42;;;14.90;99.90;;;;;;4999012;28;20022;-75
2022/04/30 12:56:40;;;;;;;4.65;3.10;;;14.90;99.90;;;;;;4999442;28;20057;-75
2022/04/30 12:59:07;;;;;;;5.68;2.53;;;15.00;99.90;;;;;;4999052;28;20507;-75
2022/04/30 13:01:34;;;;;;;7.75;3.58;;;15.00;99.90;;;;;;4999339;28;20084;-75
2022/04/30 13:04:07;;;;;;;6.85;3.15;;;15.00;99.90;;;;;;5004403;28;20031;-75
2022/04/30 13:06:35;;;;;;;4.45;2.72;;;14.90;99.90;;;;;;4984155;28;20049;-76
2022/04/30 13:14:31;;;;;;;4.22;3.00;;;14.80;99.90;;;;;;4996886;28;20047;-76
2022/04/30 13:16:57;;;;;;;4.40;2.90;;;15.00;99.90;;;;;;4995494;28;20087;-77
2022/04/30 13:19:22;;;;;;;8.50;3.33;;;14.90;99.90;;;;;;4998608;28;20073;-76
2022/04/30 13:21:49;;;;;;;5.65;3.28;;;14.90;99.90;;;;;;4998092;28;20026;-77